Time,TemperatureF,DewpointF,PressureIn,WindDirection,WindDirectionDegrees,WindSpeedMPH,WindSpeedGustMPH,Humidity,HourlyPrecipIn,Conditions,Clouds,dailyrainin,SolarRadiationWatts/m^2,SoftwareType,DateUTC
2013-10-05 00:00:00,69.0,62.0,-100.00,SSE,157,4.0,-999.0,80,-99.99,,,-99.99,0.000000,,2013-10-05 04:00:00,
2013-10-05 00:44:00,69.0,62.0,-100.00,SSE,157,4.0,-999.0,80,-99.99,,,-99.99,0.000000,,2013-10-05 04:44:00,
2013-10-05 00:54:00,69.0,62.0,-100.00,SSE,157,4.0,-999.0,80,-99.99,,,-99.99,0.000000,,2013-10-05 04:54:00,
2013-10-05 01:00:00,68.0,63.0,-100.00,SE,135,3.0,-999.0,85,-99.99,,,-99.99,0.000000,,2013-10-05 05:00:00,
2013-10-05 01:43:00,68.0,63.0,-100.00,SE,135,3.0,-999.0,85,-99.99,,,-99.99,0.000000,,2013-10-05 05:43:00,
2013-10-05 01:52:00,68.0,63.0,-100.00,SE,135,3.0,-999.0,85,-99.99,,,-99.99,0.000000,,2013-10-05 05:52:00,
2013-10-05 02:00:00,68.0,64.0,-100.00,SSE,157,3.0,-999.0,88,-99.99,,,-99.99,0.000000,,2013-10-05 06:00:00,
2013-10-05 02:43:00,68.0,64.0,-100.00,SSE,157,3.0,-999.0,88,-99.99,,,-99.99,0.000000,,2013-10-05 06:43:00,
2013-10-05 02:52:00,68.0,64.0,-100.00,SSE,157,3.0,-999.0,88,-99.99,,,-99.99,0.000000,,2013-10-05 06:52:00,
2013-10-05 03:00:00,68.0,65.0,-100.00,South,180,4.0,-999.0,88,-99.99,,,-99.99,0.000000,,2013-10-05 07:00:00,
2013-10-05 03:42:00,68.0,65.0,-100.00,South,180,4.0,-999.0,88,-99.99,,,-99.99,0.000000,,2013-10-05 07:42:00,
2013-10-05 03:52:00,68.0,65.0,-100.00,South,180,4.0,-999.0,88,-99.99,,,-99.99,0.000000,,2013-10-05 07:52:00,
2013-10-05 04:00:00,67.0,64.0,-100.00,SSE,157,3.0,-999.0,90,-99.99,,,-99.99,0.000000,,2013-10-05 08:00:00,
2013-10-05 04:42:00,67.0,64.0,-100.00,SSE,157,3.0,-999.0,90,-99.99,,,-99.99,0.000000,,2013-10-05 08:42:00,
2013-10-05 04:52:00,67.0,64.0,-100.00,SSE,157,3.0,-999.0,90,-99.99,,,-99.99,0.000000,,2013-10-05 08:52:00,
2013-10-05 05:00:00,67.0,64.0,-100.00,SE,135,2.0,-999.0,91,-99.99,,,-99.99,0.000000,,2013-10-05 09:00:00,
2013-10-05 05:43:00,67.0,64.0,-100.00,SE,135,2.0,-999.0,91,-99.99,,,-99.99,0.000000,,2013-10-05 09:43:00,
2013-10-05 05:54:00,67.0,64.0,-100.00,SE,135,2.0,-999.0,91,-99.99,,,-99.99,0.000000,,2013-10-05 09:54:00,
2013-10-05 06:00:00,66.0,63.0,-100.00,SSE,157,1.0,-999.0,92,-99.99,,,-99.99,0.000000,,2013-10-05 10:00:00,
2013-10-05 06:43:00,66.0,63.0,-100.00,SSE,157,1.0,-999.0,92,-99.99,,,-99.99,0.000000,,2013-10-05 10:43:00,
2013-10-05 06:54:00,66.0,63.0,-100.00,SSE,157,1.0,-999.0,92,-99.99,,,-99.99,0.000000,,2013-10-05 10:54:00,
2013-10-05 07:00:00,65.0,63.0,-100.00,SE,135,1.0,-999.0,92,-99.99,,,-99.99,0.000000,,2013-10-05 11:00:00,
2013-10-05 07:43:00,65.0,63.0,-100.00,SE,135,1.0,-999.0,92,-99.99,,,-99.99,0.000000,,2013-10-05 11:43:00,
2013-10-05 07:52:00,65.0,63.0,-100.00,SE,135,1.0,-999.0,92,-99.99,,,-99.99,0.000000,,2013-10-05 11:52:00,
2013-10-05 08:00:00,65.0,63.0,-100.00,SE,135,1.0,-999.0,92,-99.99,,,-99.99,1.160000,,2013-10-05 12:00:00,
2013-10-05 08:42:00,65.0,63.0,-100.00,SE,135,1.0,-999.0,92,-99.99,,,-99.99,1.160000,,2013-10-05 12:42:00,
2013-10-05 08:53:00,65.0,63.0,-100.00,SE,135,1.0,-999.0,92,-99.99,,,-99.99,1.160000,,2013-10-05 12:53:00,
2013-10-05 09:00:00,66.0,64.0,-100.00,SE,135,2.0,-999.0,93,-99.99,,,-99.99,31.320000,,2013-10-05 13:00:00,
2013-10-05 09:42:00,66.0,64.0,-100.00,SE,135,2.0,-999.0,93,-99.99,,,-99.99,31.320000,,2013-10-05 13:42:00,
2013-10-05 09:52:00,66.0,64.0,-100.00,SE,135,2.0,-999.0,93,-99.99,,,-99.99,31.320000,,2013-10-05 13:52:00,
2013-10-05 10:00:00,67.0,65.0,-100.00,SSE,157,2.0,-999.0,92,-99.99,,,-99.99,102.080002,,2013-10-05 14:00:00,
2013-10-05 10:42:00,67.0,65.0,-100.00,SSE,157,2.0,-999.0,92,-99.99,,,-99.99,102.080002,,2013-10-05 14:42:00,
2013-10-05 10:52:00,67.0,65.0,-100.00,SSE,157,2.0,-999.0,92,-99.99,,,-99.99,102.080002,,2013-10-05 14:52:00,
2013-10-05 11:00:00,70.0,67.0,-100.00,South,180,4.0,-999.0,91,-99.99,,,-99.99,151.960007,,2013-10-05 15:00:00,
2013-10-05 11:44:00,70.0,67.0,-100.00,South,180,4.0,-999.0,91,-99.99,,,-99.99,151.960007,,2013-10-05 15:44:00,
2013-10-05 11:54:00,70.0,67.0,-100.00,South,180,4.0,-999.0,91,-99.99,,,-99.99,151.960007,,2013-10-05 15:54:00,
2013-10-05 13:00:00,73.0,67.0,-100.00,South,180,5.0,-999.0,82,-99.99,,,-99.99,133.399994,,2013-10-05 17:00:00,
2013-10-05 13:42:00,73.0,67.0,-100.00,South,180,5.0,-999.0,82,-99.99,,,-99.99,133.399994,,2013-10-05 17:42:00,
2013-10-05 13:53:00,73.0,67.0,-100.00,South,180,5.0,-999.0,82,-99.99,,,-99.99,133.399994,,2013-10-05 17:53:00,
2013-10-05 14:00:00,75.0,67.0,-100.00,South,180,5.0,-999.0,75,-99.99,,,-99.99,258.679993,,2013-10-05 18:00:00,
2013-10-05 14:42:00,75.0,67.0,-100.00,South,180,5.0,-999.0,75,-99.99,,,-99.99,258.679993,,2013-10-05 18:42:00,
2013-10-05 14:52:00,75.0,67.0,-100.00,South,180,5.0,-999.0,75,-99.99,,,-99.99,258.679993,,2013-10-05 18:52:00,
2013-10-05 15:00:00,76.0,67.0,-100.00,SSW,202,5.0,-999.0,73,-99.99,,,-99.99,176.320007,,2013-10-05 19:00:00,
2013-10-05 15:42:00,76.0,67.0,-100.00,SSW,202,5.0,-999.0,73,-99.99,,,-99.99,176.320007,,2013-10-05 19:42:00,
2013-10-05 15:52:00,76.0,67.0,-100.00,SSW,202,5.0,-999.0,73,-99.99,,,-99.99,176.320007,,2013-10-05 19:52:00,
2013-10-05 16:00:00,76.0,66.0,-100.00,South,180,6.0,-999.0,70,-99.99,,,-99.99,198.360001,,2013-10-05 20:00:00,
2013-10-05 16:42:00,76.0,66.0,-100.00,South,180,6.0,-999.0,70,-99.99,,,-99.99,198.360001,,2013-10-05 20:42:00,
2013-10-05 16:52:00,76.0,66.0,-100.00,South,180,6.0,-999.0,70,-99.99,,,-99.99,198.360001,,2013-10-05 20:52:00,
2013-10-05 17:00:00,71.0,63.0,-100.00,South,180,6.0,-999.0,76,-99.99,,,-99.99,114.839996,,2013-10-05 21:00:00,
2013-10-05 17:44:00,71.0,63.0,-100.00,South,180,6.0,-999.0,76,-99.99,,,-99.99,114.839996,,2013-10-05 21:44:00,
2013-10-05 17:54:00,71.0,63.0,-100.00,South,180,6.0,-999.0,76,-99.99,,,-99.99,114.839996,,2013-10-05 21:54:00,
2013-10-05 18:00:00,69.0,64.0,-100.00,SE,135,6.0,-999.0,83,-99.99,,,-99.99,51.040001,,2013-10-05 22:00:00,
2013-10-05 18:43:00,69.0,64.0,-100.00,SE,135,6.0,-999.0,83,-99.99,,,-99.99,51.040001,,2013-10-05 22:43:00,
2013-10-05 18:53:00,69.0,64.0,-100.00,SE,135,6.0,-999.0,83,-99.99,,,-99.99,51.040001,,2013-10-05 22:53:00,
2013-10-05 19:00:00,69.0,66.0,-100.00,SE,135,4.0,-999.0,88,-99.99,,,-99.99,11.600000,,2013-10-05 23:00:00,
2013-10-05 19:43:00,69.0,66.0,-100.00,SE,135,4.0,-999.0,88,-99.99,,,-99.99,11.600000,,2013-10-05 23:43:00,
2013-10-05 19:53:00,69.0,66.0,-100.00,SE,135,4.0,-999.0,88,-99.99,,,-99.99,11.600000,,2013-10-05 23:53:00,
2013-10-05 20:00:00,70.0,67.0,-100.00,SSE,157,5.0,-999.0,89,-99.99,,,-99.99,0.000000,,2013-10-06 00:00:00,
2013-10-05 20:43:00,70.0,67.0,-100.00,SSE,157,5.0,-999.0,89,-99.99,,,-99.99,0.000000,,2013-10-06 00:43:00,
2013-10-05 20:52:00,70.0,67.0,-100.00,SSE,157,5.0,-999.0,89,-99.99,,,-99.99,0.000000,,2013-10-06 00:52:00,
2013-10-05 21:00:00,70.0,66.0,-100.00,South,180,5.0,-999.0,88,-99.99,,,-99.99,0.000000,,2013-10-06 01:00:00,
2013-10-05 21:42:00,70.0,66.0,-100.00,South,180,5.0,-999.0,88,-99.99,,,-99.99,0.000000,,2013-10-06 01:42:00,
2013-10-05 21:52:00,70.0,66.0,-100.00,South,180,5.0,-999.0,88,-99.99,,,-99.99,0.000000,,2013-10-06 01:52:00,
2013-10-05 22:00:00,67.0,64.0,-100.00,SSW,202,4.0,-999.0,88,0.11,,,-99.99,0.000000,,2013-10-06 02:00:00,
2013-10-05 22:42:00,67.0,64.0,-100.00,SSW,202,4.0,-999.0,88,0.11,,,-99.99,0.000000,,2013-10-06 02:42:00,
2013-10-05 22:53:00,67.0,64.0,-100.00,SSW,202,4.0,-999.0,88,0.11,,,-99.99,0.000000,,2013-10-06 02:53:00,
2013-10-05 23:45:00,66.0,63.0,-100.00,South,180,4.0,-999.0,91,0.25,,,-99.99,0.000000,,2013-10-06 03:45:00,
2013-10-05 23:54:00,66.0,63.0,-100.00,South,180,4.0,-999.0,91,0.25,,,-99.99,0.000000,,2013-10-06 03:54:00,